sensor_id;sensor_type;location;lat;lon;timestamp;P1;durP1;ratioP1;P2;durP2;ratioP2
15504;SDS011;7854;52.184;5.942;2023-09-30T00:01:41;4;;;4;;
15504;SDS011;7854;52.184;5.942;2023-09-30T00:03:56;7;;;5;;
15504;SDS011;7854;52.184;5.942;2023-09-30T00:06:11;9;;;4;;
15504;SDS011;7854;52.184;5.942;2023-09-30T00:08:24;8;;;4;;
15504;SDS011;7854;52.184;5.942;2023-09-30T00:10:39;14;;;3;;
15504;SDS011;7854;52.184;5.942;2023-09-30T00:12:53;7;;;3;;
15504;SDS011;7854;52.184;5.942;2023-09-30T00:15:07;12;;;5;;
15504;SDS011;7854;52.184;5.942;2023-09-30T00:17:22;12;;;6;;
15504;SDS011;7854;52.184;5.942;2023-09-30T00:19:36;8;;;3;;
15504;SDS011;7854;52.184;5.942;2023-09-30T00:21:50;17;;;5;;
15504;SDS011;7854;52.184;5.942;2023-09-30T00:24:05;10;;;4;;
15504;SDS011;7854;52.184;5.942;2023-09-30T00:26:19;13;;;5;;
15504;SDS011;7854;52.184;5.942;2023-09-30T00:28:33;12;;;4;;
15504;SDS011;7854;52.184;5.942;2023-09-30T00:30:48;8;;;5;;
15504;SDS011;7854;52.184;5.942;2023-09-30T00:33:03;8;;;4;;
15504;SDS011;7854;52.184;5.942;2023-09-30T00:35:16;8;;;3;;
15504;SDS011;7854;52.184;5.942;2023-09-30T00:37:31;17;;;5;;
15504;SDS011;7854;52.184;5.942;2023-09-30T00:39:46;10;;;4;;
15504;SDS011;7854;52.184;5.942;2023-09-30T00:42:00;15;;;5;;
15504;SDS011;7854;52.184;5.942;2023-09-30T00:44:15;14;;;5;;
15504;SDS011;7854;52.184;5.942;2023-09-30T00:46:30;9;;;4;;
15504;SDS011;7854;52.184;5.942;2023-09-30T00:48:44;6;;;4;;
15504;SDS011;7854;52.184;5.942;2023-09-30T00:50:59;22;;;4;;
15504;SDS011;7854;52.184;5.942;2023-09-30T00:53:12;13;;;6;;
15504;SDS011;7854;52.184;5.942;2023-09-30T00:57:41;6;;;4;;
15504;SDS011;7854;52.184;5.942;2023-09-30T00:59:56;21;;;7;;
15504;SDS011;7854;52.184;5.942;2023-09-30T01:02:10;9;;;5;;
15504;SDS011;7854;52.184;5.942;2023-09-30T01:04:25;12;;;7;;
15504;SDS011;7854;52.184;5.942;2023-09-30T01:06:39;12;;;8;;
15504;SDS011;7854;52.184;5.942;2023-09-30T01:08:54;22;;;7;;
15504;SDS011;7854;52.184;5.942;2023-09-30T01:11:08;6;;;5;;
15504;SDS011;7854;52.184;5.942;2023-09-30T01:13:22;18;;;8;;
15504;SDS011;7854;52.184;5.942;2023-09-30T01:15:36;12;;;8;;
15504;SDS011;7854;52.184;5.942;2023-09-30T01:17:49;8;;;7;;
15504;SDS011;7854;52.184;5.942;2023-09-30T01:20:04;14;;;7;;
15504;SDS011;7854;52.184;5.942;2023-09-30T01:22:18;24;;;7;;
15504;SDS011;7854;52.184;5.942;2023-09-30T01:24:37;15;;;9;;
15504;SDS011;7854;52.184;5.942;2023-09-30T01:26:47;10;;;8;;
15504;SDS011;7854;52.184;5.942;2023-09-30T01:29:02;11;;;8;;
15504;SDS011;7854;52.184;5.942;2023-09-30T01:31:16;15;;;8;;
15504;SDS011;7854;52.184;5.942;2023-09-30T01:33:30;22;;;9;;
15504;SDS011;7854;52.184;5.942;2023-09-30T01:35:44;13;;;9;;
15504;SDS011;7854;52.184;5.942;2023-09-30T01:37:58;14;;;9;;
15504;SDS011;7854;52.184;5.942;2023-09-30T01:40:13;18;;;8;;
15504;SDS011;7854;52.184;5.942;2023-09-30T01:42:27;16;;;9;;
15504;SDS011;7854;52.184;5.942;2023-09-30T01:44:42;18;;;8;;
15504;SDS011;7854;52.184;5.942;2023-09-30T01:46:56;12;;;9;;
15504;SDS011;7854;52.184;5.942;2023-09-30T01:49:11;15;;;9;;
15504;SDS011;7854;52.184;5.942;2023-09-30T01:51:25;14;;;10;;
15504;SDS011;7854;52.184;5.942;2023-09-30T01:53:39;11;;;9;;
15504;SDS011;7854;52.184;5.942;2023-09-30T01:55:54;16;;;11;;
15504;SDS011;7854;52.184;5.942;2023-09-30T01:58:08;14;;;10;;
15504;SDS011;7854;52.184;5.942;2023-09-30T02:00:23;15;;;9;;
15504;SDS011;7854;52.184;5.942;2023-09-30T02:02:37;36;;;12;;
15504;SDS011;7854;52.184;5.942;2023-09-30T02:04:51;21;;;11;;
15504;SDS011;7854;52.184;5.942;2023-09-30T02:07:06;13;;;9;;
15504;SDS011;7854;52.184;5.942;2023-09-30T02:09:21;16;;;12;;
15504;SDS011;7854;52.184;5.942;2023-09-30T02:11:35;15;;;8;;
15504;SDS011;7854;52.184;5.942;2023-09-30T02:13:50;19;;;11;;
15504;SDS011;7854;52.184;5.942;2023-09-30T02:16:04;19;;;11;;
15504;SDS011;7854;52.184;5.942;2023-09-30T02:18:18;11;;;10;;
15504;SDS011;7854;52.184;5.942;2023-09-30T02:20:33;23;;;12;;
15504;SDS011;7854;52.184;5.942;2023-09-30T02:22:47;13;;;11;;
15504;SDS011;7854;52.184;5.942;2023-09-30T02:25:01;18;;;11;;
15504;SDS011;7854;52.184;5.942;2023-09-30T02:27:16;21;;;10;;
15504;SDS011;7854;52.184;5.942;2023-09-30T02:29:30;22;;;12;;
15504;SDS011;7854;52.184;5.942;2023-09-30T02:31:45;22;;;11;;
15504;SDS011;7854;52.184;5.942;2023-09-30T02:33:59;24;;;11;;
15504;SDS011;7854;52.184;5.942;2023-09-30T02:36:14;20;;;12;;
15504;SDS011;7854;52.184;5.942;2023-09-30T02:38:28;26;;;14;;
15504;SDS011;7854;52.184;5.942;2023-09-30T02:40:44;13;;;11;;
15504;SDS011;7854;52.184;5.942;2023-09-30T02:42:57;11;;;9;;
15504;SDS011;7854;52.184;5.942;2023-09-30T02:45:12;17;;;10;;
15504;SDS011;7854;52.184;5.942;2023-09-30T02:47:26;27;;;12;;
15504;SDS011;7854;52.184;5.942;2023-09-30T02:49:41;26;;;15;;
15504;SDS011;7854;52.184;5.942;2023-09-30T02:51:55;24;;;13;;
15504;SDS011;7854;52.184;5.942;2023-09-30T02:54:10;26;;;11;;
15504;SDS011;7854;52.184;5.942;2023-09-30T02:56:24;13;;;10;;
15504;SDS011;7854;52.184;5.942;2023-09-30T02:58:38;16;;;10;;
15504;SDS011;7854;52.184;5.942;2023-09-30T03:00:53;15;;;11;;
15504;SDS011;7854;52.184;5.942;2023-09-30T03:03:07;14;;;10;;
15504;SDS011;7854;52.184;5.942;2023-09-30T03:05:22;11;;;10;;
15504;SDS011;7854;52.184;5.942;2023-09-30T03:07:36;23;;;12;;
15504;SDS011;7854;52.184;5.942;2023-09-30T03:09:51;18;;;10;;
15504;SDS011;7854;52.184;5.942;2023-09-30T03:12:05;18;;;12;;
15504;SDS011;7854;52.184;5.942;2023-09-30T03:14:19;12;;;10;;
15504;SDS011;7854;52.184;5.942;2023-09-30T03:16:34;18;;;11;;
15504;SDS011;7854;52.184;5.942;2023-09-30T03:18:48;14;;;8;;
15504;SDS011;7854;52.184;5.942;2023-09-30T03:21:12;16;;;9;;
15504;SDS011;7854;52.184;5.942;2023-09-30T03:23:17;17;;;11;;
15504;SDS011;7854;52.184;5.942;2023-09-30T03:25:31;18;;;10;;
15504;SDS011;7854;52.184;5.942;2023-09-30T03:27:46;24;;;12;;
15504;SDS011;7854;52.184;5.942;2023-09-30T03:30:01;20;;;11;;
15504;SDS011;7854;52.184;5.942;2023-09-30T03:32:15;22;;;13;;
15504;SDS011;7854;52.184;5.942;2023-09-30T03:34:29;15;;;12;;
15504;SDS011;7854;52.184;5.942;2023-09-30T03:36:44;20;;;11;;
15504;SDS011;7854;52.184;5.942;2023-09-30T03:38:58;20;;;10;;
15504;SDS011;7854;52.184;5.942;2023-09-30T03:41:13;18;;;12;;
15504;SDS011;7854;52.184;5.942;2023-09-30T03:43:28;10;;;9;;
15504;SDS011;7854;52.184;5.942;2023-09-30T03:45:41;18;;;12;;
15504;SDS011;7854;52.184;5.942;2023-09-30T03:47:56;11;;;9;;
15504;SDS011;7854;52.184;5.942;2023-09-30T03:50:11;16;;;12;;
15504;SDS011;7854;52.184;5.942;2023-09-30T03:52:25;15;;;12;;
15504;SDS011;7854;52.184;5.942;2023-09-30T03:54:40;12;;;11;;
15504;SDS011;7854;52.184;5.942;2023-09-30T03:56:53;19;;;12;;
15504;SDS011;7854;52.184;5.942;2023-09-30T03:59:07;18;;;11;;
15504;SDS011;7854;52.184;5.942;2023-09-30T04:01:21;14;;;11;;
15504;SDS011;7854;52.184;5.942;2023-09-30T04:03:35;22;;;14;;
15504;SDS011;7854;52.184;5.942;2023-09-30T04:05:50;26;;;14;;
15504;SDS011;7854;52.184;5.942;2023-09-30T04:08:04;33;;;17;;
15504;SDS011;7854;52.184;5.942;2023-09-30T04:10:18;21;;;14;;
15504;SDS011;7854;52.184;5.942;2023-09-30T04:12:33;20;;;15;;
15504;SDS011;7854;52.184;5.942;2023-09-30T04:14:48;24;;;15;;
15504;SDS011;7854;52.184;5.942;2023-09-30T04:17:02;20;;;15;;
15504;SDS011;7854;52.184;5.942;2023-09-30T04:19:16;24;;;14;;
15504;SDS011;7854;52.184;5.942;2023-09-30T04:21:31;32;;;15;;
15504;SDS011;7854;52.184;5.942;2023-09-30T04:23:45;27;;;17;;
15504;SDS011;7854;52.184;5.942;2023-09-30T04:26:00;27;;;16;;
15504;SDS011;7854;52.184;5.942;2023-09-30T04:28:14;39;;;17;;
15504;SDS011;7854;52.184;5.942;2023-09-30T04:30:28;20;;;16;;
15504;SDS011;7854;52.184;5.942;2023-09-30T04:32:43;22;;;15;;
15504;SDS011;7854;52.184;5.942;2023-09-30T04:34:57;51;;;23;;
15504;SDS011;7854;52.184;5.942;2023-09-30T04:37:12;20;;;17;;
15504;SDS011;7854;52.184;5.942;2023-09-30T04:39:26;25;;;17;;
15504;SDS011;7854;52.184;5.942;2023-09-30T04:41:41;17;;;15;;
15504;SDS011;7854;52.184;5.942;2023-09-30T04:43:55;29;;;18;;
15504;SDS011;7854;52.184;5.942;2023-09-30T04:46:10;33;;;21;;
15504;SDS011;7854;52.184;5.942;2023-09-30T04:48:24;40;;;21;;
15504;SDS011;7854;52.184;5.942;2023-09-30T04:50:39;24;;;20;;
15504;SDS011;7854;52.184;5.942;2023-09-30T04:52:53;37;;;23;;
15504;SDS011;7854;52.184;5.942;2023-09-30T04:55:07;52;;;25;;
15504;SDS011;7854;52.184;5.942;2023-09-30T04:57:22;36;;;23;;
15504;SDS011;7854;52.184;5.942;2023-09-30T04:59:36;36;;;22;;
15504;SDS011;7854;52.184;5.942;2023-09-30T05:01:51;42;;;25;;
15504;SDS011;7854;52.184;5.942;2023-09-30T05:04:05;61;;;31;;
15504;SDS011;7854;52.184;5.942;2023-09-30T05:06:20;40;;;26;;
15504;SDS011;7854;52.184;5.942;2023-09-30T05:08:34;49;;;31;;
15504;SDS011;7854;52.184;5.942;2023-09-30T05:10:49;51;;;29;;
15504;SDS011;7854;52.184;5.942;2023-09-30T05:13:03;30;;;23;;
15504;SDS011;7854;52.184;5.942;2023-09-30T05:15:17;37;;;25;;
15504;SDS011;7854;52.184;5.942;2023-09-30T05:17:32;47;;;31;;
15504;SDS011;7854;52.184;5.942;2023-09-30T05:19:46;44;;;30;;
15504;SDS011;7854;52.184;5.942;2023-09-30T05:22:01;39;;;25;;
15504;SDS011;7854;52.184;5.942;2023-09-30T05:24:16;46;;;30;;
15504;SDS011;7854;52.184;5.942;2023-09-30T05:26:30;56;;;33;;
15504;SDS011;7854;52.184;5.942;2023-09-30T05:28:44;71;;;37;;
15504;SDS011;7854;52.184;5.942;2023-09-30T05:30:59;61;;;31;;
15504;SDS011;7854;52.184;5.942;2023-09-30T05:33:13;77;;;41;;
15504;SDS011;7854;52.184;5.942;2023-09-30T05:35:28;37;;;25;;
15504;SDS011;7854;52.184;5.942;2023-09-30T05:37:42;81;;;39;;
15504;SDS011;7854;52.184;5.942;2023-09-30T05:39:56;48;;;31;;
15504;SDS011;7854;52.184;5.942;2023-09-30T05:42:11;46;;;30;;
15504;SDS011;7854;52.184;5.942;2023-09-30T05:44:25;85;;;41;;
15504;SDS011;7854;52.184;5.942;2023-09-30T05:46:39;33;;;27;;
15504;SDS011;7854;52.184;5.942;2023-09-30T05:48:54;56;;;34;;
15504;SDS011;7854;52.184;5.942;2023-09-30T05:51:09;44;;;29;;
15504;SDS011;7854;52.184;5.942;2023-09-30T05:53:23;63;;;35;;
15504;SDS011;7854;52.184;5.942;2023-09-30T05:55:38;44;;;28;;
15504;SDS011;7854;52.184;5.942;2023-09-30T05:57:52;55;;;32;;
15504;SDS011;7854;52.184;5.942;2023-09-30T06:00:07;59;;;33;;
15504;SDS011;7854;52.184;5.942;2023-09-30T06:02:21;45;;;29;;
15504;SDS011;7854;52.184;5.942;2023-09-30T06:04:35;55;;;32;;
15504;SDS011;7854;52.184;5.942;2023-09-30T06:06:50;48;;;32;;
15504;SDS011;7854;52.184;5.942;2023-09-30T06:09:04;55;;;35;;
15504;SDS011;7854;52.184;5.942;2023-09-30T06:11:19;51;;;31;;
15504;SDS011;7854;52.184;5.942;2023-09-30T06:13:33;62;;;35;;
15504;SDS011;7854;52.184;5.942;2023-09-30T06:15:48;80;;;41;;
15504;SDS011;7854;52.184;5.942;2023-09-30T06:18:02;48;;;27;;
15504;SDS011;7854;52.184;5.942;2023-09-30T06:20:17;49;;;31;;
15504;SDS011;7854;52.184;5.942;2023-09-30T06:22:30;63;;;36;;
15504;SDS011;7854;52.184;5.942;2023-09-30T06:24:45;66;;;37;;
15504;SDS011;7854;52.184;5.942;2023-09-30T06:26:59;61;;;36;;
15504;SDS011;7854;52.184;5.942;2023-09-30T06:29:13;53;;;31;;
15504;SDS011;7854;52.184;5.942;2023-09-30T06:31:28;46;;;30;;
15504;SDS011;7854;52.184;5.942;2023-09-30T06:33:42;57;;;32;;
15504;SDS011;7854;52.184;5.942;2023-09-30T06:38:11;52;;;32;;
15504;SDS011;7854;52.184;5.942;2023-09-30T06:40:26;68;;;35;;
15504;SDS011;7854;52.184;5.942;2023-09-30T06:42:40;57;;;34;;
15504;SDS011;7854;52.184;5.942;2023-09-30T06:44:54;56;;;35;;
15504;SDS011;7854;52.184;5.942;2023-09-30T06:47:09;43;;;31;;
15504;SDS011;7854;52.184;5.942;2023-09-30T06:49:23;55;;;33;;
15504;SDS011;7854;52.184;5.942;2023-09-30T06:51:38;57;;;35;;
15504;SDS011;7854;52.184;5.942;2023-09-30T06:53:52;50;;;29;;
15504;SDS011;7854;52.184;5.942;2023-09-30T06:56:06;36;;;29;;
15504;SDS011;7854;52.184;5.942;2023-09-30T06:58:21;33;;;27;;
15504;SDS011;7854;52.184;5.942;2023-09-30T07:00:36;26;;;21;;
15504;SDS011;7854;52.184;5.942;2023-09-30T07:02:50;36;;;23;;
15504;SDS011;7854;52.184;5.942;2023-09-30T07:05:05;24;;;20;;
15504;SDS011;7854;52.184;5.942;2023-09-30T07:07:19;19;;;17;;
15504;SDS011;7854;52.184;5.942;2023-09-30T07:09:32;20;;;18;;
15504;SDS011;7854;52.184;5.942;2023-09-30T07:11:47;19;;;18;;
15504;SDS011;7854;52.184;5.942;2023-09-30T07:14:02;19;;;15;;
15504;SDS011;7854;52.184;5.942;2023-09-30T07:16:16;19;;;13;;
15504;SDS011;7854;52.184;5.942;2023-09-30T07:18:30;14;;;13;;
15504;SDS011;7854;52.184;5.942;2023-09-30T07:20:44;13;;;12;;
15504;SDS011;7854;52.184;5.942;2023-09-30T07:22:59;11;;;10;;
15504;SDS011;7854;52.184;5.942;2023-09-30T07:25:14;13;;;11;;
15504;SDS011;7854;52.184;5.942;2023-09-30T07:27:28;10;;;9;;
15504;SDS011;7854;52.184;5.942;2023-09-30T07:29:43;13;;;11;;
15504;SDS011;7854;52.184;5.942;2023-09-30T07:31:57;11;;;10;;
15504;SDS011;7854;52.184;5.942;2023-09-30T07:34:11;12;;;11;;
15504;SDS011;7854;52.184;5.942;2023-09-30T07:36:26;11;;;10;;
15504;SDS011;7854;52.184;5.942;2023-09-30T07:38:40;10;;;9;;
15504;SDS011;7854;52.184;5.942;2023-09-30T07:40:55;12;;;9;;
15504;SDS011;7854;52.184;5.942;2023-09-30T07:43:09;9;;;8;;
15504;SDS011;7854;52.184;5.942;2023-09-30T07:45:23;10;;;9;;
15504;SDS011;7854;52.184;5.942;2023-09-30T07:47:38;10;;;9;;
15504;SDS011;7854;52.184;5.942;2023-09-30T07:49:52;12;;;11;;
15504;SDS011;7854;52.184;5.942;2023-09-30T07:52:07;9;;;8;;
15504;SDS011;7854;52.184;5.942;2023-09-30T07:54:20;9;;;8;;
15504;SDS011;7854;52.184;5.942;2023-09-30T07:56:35;12;;;9;;
15504;SDS011;7854;52.184;5.942;2023-09-30T07:58:49;7;;;7;;
15504;SDS011;7854;52.184;5.942;2023-09-30T08:01:03;24;;;11;;
15504;SDS011;7854;52.184;5.942;2023-09-30T08:03:18;10;;;9;;
15504;SDS011;7854;52.184;5.942;2023-09-30T08:05:32;12;;;11;;
15504;SDS011;7854;52.184;5.942;2023-09-30T08:07:47;9;;;8;;
15504;SDS011;7854;52.184;5.942;2023-09-30T08:10:01;8;;;7;;
15504;SDS011;7854;52.184;5.942;2023-09-30T08:12:16;7;;;6;;
15504;SDS011;7854;52.184;5.942;2023-09-30T08:14:30;7;;;6;;
15504;SDS011;7854;52.184;5.942;2023-09-30T08:16:45;10;;;7;;
15504;SDS011;7854;52.184;5.942;2023-09-30T08:18:59;6;;;6;;
15504;SDS011;7854;52.184;5.942;2023-09-30T08:21:13;9;;;8;;
15504;SDS011;7854;52.184;5.942;2023-09-30T08:23:29;7;;;6;;
15504;SDS011;7854;52.184;5.942;2023-09-30T08:25:43;6;;;5;;
15504;SDS011;7854;52.184;5.942;2023-09-30T08:27:57;6;;;5;;
15504;SDS011;7854;52.184;5.942;2023-09-30T08:30:11;5;;;5;;
15504;SDS011;7854;52.184;5.942;2023-09-30T08:32:26;6;;;6;;
15504;SDS011;7854;52.184;5.942;2023-09-30T08:34:40;6;;;6;;
15504;SDS011;7854;52.184;5.942;2023-09-30T08:36:54;6;;;5;;
15504;SDS011;7854;52.184;5.942;2023-09-30T08:41:24;9;;;5;;
15504;SDS011;7854;52.184;5.942;2023-09-30T08:43:39;5;;;5;;
15504;SDS011;7854;52.184;5.942;2023-09-30T08:45:53;5;;;5;;
15504;SDS011;7854;52.184;5.942;2023-09-30T08:48:07;5;;;4;;
15504;SDS011;7854;52.184;5.942;2023-09-30T08:50:21;7;;;4;;
15504;SDS011;7854;52.184;5.942;2023-09-30T08:52:36;4;;;3;;
15504;SDS011;7854;52.184;5.942;2023-09-30T08:54:50;5;;;4;;
15504;SDS011;7854;52.184;5.942;2023-09-30T08:59:19;5;;;4;;
15504;SDS011;7854;52.184;5.942;2023-09-30T09:01:34;4;;;4;;
15504;SDS011;7854;52.184;5.942;2023-09-30T09:03:48;4;;;4;;
15504;SDS011;7854;52.184;5.942;2023-09-30T09:06:02;4;;;3;;
15504;SDS011;7854;52.184;5.942;2023-09-30T09:08:16;2;;;2;;
15504;SDS011;7854;52.184;5.942;2023-09-30T09:10:30;3;;;3;;
15504;SDS011;7854;52.184;5.942;2023-09-30T09:12:45;3;;;3;;
15504;SDS011;7854;52.184;5.942;2023-09-30T09:14:59;4;;;3;;
15504;SDS011;7854;52.184;5.942;2023-09-30T09:19:28;5;;;3;;
15504;SDS011;7854;52.184;5.942;2023-09-30T09:21:52;3;;;3;;
15504;SDS011;7854;52.184;5.942;2023-09-30T09:24:02;8;;;3;;
15504;SDS011;7854;52.184;5.942;2023-09-30T09:26:23;6;;;4;;
15504;SDS011;7854;52.184;5.942;2023-09-30T09:28:43;3;;;3;;
15504;SDS011;7854;52.184;5.942;2023-09-30T09:31:18;2;;;2;;
15504;SDS011;7854;52.184;5.942;2023-09-30T09:33:31;2;;;2;;
15504;SDS011;7854;52.184;5.942;2023-09-30T09:35:38;6;;;3;;
15504;SDS011;7854;52.184;5.942;2023-09-30T09:37:56;4;;;2;;
15504;SDS011;7854;52.184;5.942;2023-09-30T09:40:07;2;;;2;;
15504;SDS011;7854;52.184;5.942;2023-09-30T09:42:25;2;;;2;;
15504;SDS011;7854;52.184;5.942;2023-09-30T09:44:36;7;;;3;;
15504;SDS011;7854;52.184;5.942;2023-09-30T09:46:50;4;;;2;;
15504;SDS011;7854;52.184;5.942;2023-09-30T09:49:04;3;;;2;;
15504;SDS011;7854;52.184;5.942;2023-09-30T09:51:19;5;;;2;;
15504;SDS011;7854;52.184;5.942;2023-09-30T09:53:35;2;;;2;;
15504;SDS011;7854;52.184;5.942;2023-09-30T09:55:48;3;;;2;;
15504;SDS011;7854;52.184;5.942;2023-09-30T09:58:04;2;;;1;;
15504;SDS011;7854;52.184;5.942;2023-09-30T10:00:17;3;;;2;;
15504;SDS011;7854;52.184;5.942;2023-09-30T10:02:31;4;;;2;;
15504;SDS011;7854;52.184;5.942;2023-09-30T10:04:46;7;;;2;;
15504;SDS011;7854;52.184;5.942;2023-09-30T10:07:00;3;;;1;;
15504;SDS011;7854;52.184;5.942;2023-09-30T10:09:14;5;;;2;;
15504;SDS011;7854;52.184;5.942;2023-09-30T10:11:29;3;;;2;;
15504;SDS011;7854;52.184;5.942;2023-09-30T10:13:59;4;;;2;;
15504;SDS011;7854;52.184;5.942;2023-09-30T10:15:58;5;;;3;;
15504;SDS011;7854;52.184;5.942;2023-09-30T10:18:12;2;;;2;;
15504;SDS011;7854;52.184;5.942;2023-09-30T10:20:27;2;;;1;;
15504;SDS011;7854;52.184;5.942;2023-09-30T10:22:40;2;;;1;;
15504;SDS011;7854;52.184;5.942;2023-09-30T10:24:55;2;;;1;;
15504;SDS011;7854;52.184;5.942;2023-09-30T10:27:27;2;;;2;;
15504;SDS011;7854;52.184;5.942;2023-09-30T10:29:23;4;;;1;;
15504;SDS011;7854;52.184;5.942;2023-09-30T10:31:46;2;;;2;;
15504;SDS011;7854;52.184;5.942;2023-09-30T10:34:24;8;;;2;;
15504;SDS011;7854;52.184;5.942;2023-09-30T10:36:07;3;;;3;;
15504;SDS011;7854;52.184;5.942;2023-09-30T10:38:37;4;;;2;;
15504;SDS011;7854;52.184;5.942;2023-09-30T10:40:36;3;;;2;;
15504;SDS011;7854;52.184;5.942;2023-09-30T10:42:50;4;;;2;;
15504;SDS011;7854;52.184;5.942;2023-09-30T10:45:05;2;;;1;;
15504;SDS011;7854;52.184;5.942;2023-09-30T10:47:35;2;;;1;;
15504;SDS011;7854;52.184;5.942;2023-09-30T10:49:33;3;;;1;;
15504;SDS011;7854;52.184;5.942;2023-09-30T10:51:49;3;;;2;;
15504;SDS011;7854;52.184;5.942;2023-09-30T10:54:03;5;;;1;;
15504;SDS011;7854;52.184;5.942;2023-09-30T10:56:18;2;;;2;;
15504;SDS011;7854;52.184;5.942;2023-09-30T10:58:39;3;;;2;;
15504;SDS011;7854;52.184;5.942;2023-09-30T11:00:53;2;;;2;;
15504;SDS011;7854;52.184;5.942;2023-09-30T11:03:00;1;;;1;;
15504;SDS011;7854;52.184;5.942;2023-09-30T11:05:15;2;;;2;;
15504;SDS011;7854;52.184;5.942;2023-09-30T11:07:29;2;;;1;;
15504;SDS011;7854;52.184;5.942;2023-09-30T11:09:43;1;;;1;;
15504;SDS011;7854;52.184;5.942;2023-09-30T11:11:58;7;;;1;;
15504;SDS011;7854;52.184;5.942;2023-09-30T11:14:16;9;;;1;;
15504;SDS011;7854;52.184;5.942;2023-09-30T11:16:27;3;;;1;;
15504;SDS011;7854;52.184;5.942;2023-09-30T11:18:42;3;;;2;;
15504;SDS011;7854;52.184;5.942;2023-09-30T11:21:03;7;;;2;;
15504;SDS011;7854;52.184;5.942;2023-09-30T11:23:11;4;;;2;;
15504;SDS011;7854;52.184;5.942;2023-09-30T11:25:25;3;;;2;;
15504;SDS011;7854;52.184;5.942;2023-09-30T11:27:39;3;;;2;;
15504;SDS011;7854;52.184;5.942;2023-09-30T11:32:08;6;;;2;;
15504;SDS011;7854;52.184;5.942;2023-09-30T11:34:30;3;;;1;;
15504;SDS011;7854;52.184;5.942;2023-09-30T11:36:37;6;;;2;;
15504;SDS011;7854;52.184;5.942;2023-09-30T11:38:52;8;;;1;;
15504;SDS011;7854;52.184;5.942;2023-09-30T11:43:20;6;;;1;;
15504;SDS011;7854;52.184;5.942;2023-09-30T11:45:35;12;;;1;;
15504;SDS011;7854;52.184;5.942;2023-09-30T11:47:49;3;;;2;;
15504;SDS011;7854;52.184;5.942;2023-09-30T11:50:04;7;;;2;;
15504;SDS011;7854;52.184;5.942;2023-09-30T11:52:25;2;;;1;;
15504;SDS011;7854;52.184;5.942;2023-09-30T11:54:32;2;;;1;;
15504;SDS011;7854;52.184;5.942;2023-09-30T11:56:46;3;;;2;;
15504;SDS011;7854;52.184;5.942;2023-09-30T11:59:02;3;;;2;;
15504;SDS011;7854;52.184;5.942;2023-09-30T12:01:15;3;;;2;;
15504;SDS011;7854;52.184;5.942;2023-09-30T12:03:30;2;;;2;;
15504;SDS011;7854;52.184;5.942;2023-09-30T12:05:44;2;;;2;;
15504;SDS011;7854;52.184;5.942;2023-09-30T12:07:58;4;;;2;;
15504;SDS011;7854;52.184;5.942;2023-09-30T12:10:13;7;;;2;;
15504;SDS011;7854;52.184;5.942;2023-09-30T12:12:27;11;;;2;;
15504;SDS011;7854;52.184;5.942;2023-09-30T12:14:42;4;;;2;;
15504;SDS011;7854;52.184;5.942;2023-09-30T12:16:57;3;;;2;;
15504;SDS011;7854;52.184;5.942;2023-09-30T12:19:10;3;;;2;;
15504;SDS011;7854;52.184;5.942;2023-09-30T12:21:25;9;;;2;;
15504;SDS011;7854;52.184;5.942;2023-09-30T12:23:40;3;;;2;;
15504;SDS011;7854;52.184;5.942;2023-09-30T12:25:54;5;;;2;;
15504;SDS011;7854;52.184;5.942;2023-09-30T12:28:08;4;;;2;;
15504;SDS011;7854;52.184;5.942;2023-09-30T12:30:23;3;;;2;;
15504;SDS011;7854;52.184;5.942;2023-09-30T12:32:37;9;;;2;;
15504;SDS011;7854;52.184;5.942;2023-09-30T12:34:51;3;;;1;;
15504;SDS011;7854;52.184;5.942;2023-09-30T12:37:06;2;;;1;;
15504;SDS011;7854;52.184;5.942;2023-09-30T12:39:21;2;;;1;;
15504;SDS011;7854;52.184;5.942;2023-09-30T12:41:35;8;;;2;;
15504;SDS011;7854;52.184;5.942;2023-09-30T12:43:49;4;;;1;;
15504;SDS011;7854;52.184;5.942;2023-09-30T12:46:04;4;;;2;;
15504;SDS011;7854;52.184;5.942;2023-09-30T12:48:18;3;;;2;;
15504;SDS011;7854;52.184;5.942;2023-09-30T12:50:33;9;;;2;;
15504;SDS011;7854;52.184;5.942;2023-09-30T12:52:47;2;;;1;;
15504;SDS011;7854;52.184;5.942;2023-09-30T12:55:02;9;;;1;;
15504;SDS011;7854;52.184;5.942;2023-09-30T12:57:16;2;;;1;;
15504;SDS011;7854;52.184;5.942;2023-09-30T12:59:30;7;;;2;;
15504;SDS011;7854;52.184;5.942;2023-09-30T13:01:45;6;;;2;;
15504;SDS011;7854;52.184;5.942;2023-09-30T13:04:00;2;;;1;;
15504;SDS011;7854;52.184;5.942;2023-09-30T13:06:14;6;;;3;;
15504;SDS011;7854;52.184;5.942;2023-09-30T13:08:28;9;;;2;;
15504;SDS011;7854;52.184;5.942;2023-09-30T13:10:43;3;;;2;;
15504;SDS011;7854;52.184;5.942;2023-09-30T13:12:57;3;;;1;;
15504;SDS011;7854;52.184;5.942;2023-09-30T13:15:12;2;;;1;;
15504;SDS011;7854;52.184;5.942;2023-09-30T13:17:26;7;;;2;;
15504;SDS011;7854;52.184;5.942;2023-09-30T13:19:41;4;;;2;;
15504;SDS011;7854;52.184;5.942;2023-09-30T13:21:56;3;;;2;;
15504;SDS011;7854;52.184;5.942;2023-09-30T13:24:09;3;;;2;;
15504;SDS011;7854;52.184;5.942;2023-09-30T13:26:24;3;;;2;;
15504;SDS011;7854;52.184;5.942;2023-09-30T13:28:38;2;;;2;;
15504;SDS011;7854;52.184;5.942;2023-09-30T13:30:53;6;;;1;;
15504;SDS011;7854;52.184;5.942;2023-09-30T13:33:07;3;;;2;;
15504;SDS011;7854;52.184;5.942;2023-09-30T13:35:22;10;;;2;;
15504;SDS011;7854;52.184;5.942;2023-09-30T13:37:36;2;;;1;;
15504;SDS011;7854;52.184;5.942;2023-09-30T13:39:51;2;;;2;;
15504;SDS011;7854;52.184;5.942;2023-09-30T13:42:05;2;;;2;;
15504;SDS011;7854;52.184;5.942;2023-09-30T13:44:20;5;;;2;;
15504;SDS011;7854;52.184;5.942;2023-09-30T13:46:34;7;;;2;;
15504;SDS011;7854;52.184;5.942;2023-09-30T13:48:48;7;;;2;;
15504;SDS011;7854;52.184;5.942;2023-09-30T13:51:03;3;;;2;;
15504;SDS011;7854;52.184;5.942;2023-09-30T13:53:17;5;;;2;;
15504;SDS011;7854;52.184;5.942;2023-09-30T13:55:31;9;;;2;;
15504;SDS011;7854;52.184;5.942;2023-09-30T13:57:46;3;;;2;;
15504;SDS011;7854;52.184;5.942;2023-09-30T14:00:00;3;;;2;;
15504;SDS011;7854;52.184;5.942;2023-09-30T14:02:15;6;;;2;;
15504;SDS011;7854;52.184;5.942;2023-09-30T14:04:29;4;;;3;;
15504;SDS011;7854;52.184;5.942;2023-09-30T14:06:44;3;;;2;;
15504;SDS011;7854;52.184;5.942;2023-09-30T14:08:59;2;;;2;;
15504;SDS011;7854;52.184;5.942;2023-09-30T14:11:13;3;;;2;;
15504;SDS011;7854;52.184;5.942;2023-09-30T14:13:27;4;;;2;;
15504;SDS011;7854;52.184;5.942;2023-09-30T14:15:40;6;;;2;;
15504;SDS011;7854;52.184;5.942;2023-09-30T14:17:55;3;;;2;;
15504;SDS011;7854;52.184;5.942;2023-09-30T14:20:10;3;;;2;;
15504;SDS011;7854;52.184;5.942;2023-09-30T14:22:24;3;;;2;;
15504;SDS011;7854;52.184;5.942;2023-09-30T14:24:39;2;;;2;;
15504;SDS011;7854;52.184;5.942;2023-09-30T14:26:53;16;;;2;;
15504;SDS011;7854;52.184;5.942;2023-09-30T14:29:07;2;;;2;;
15504;SDS011;7854;52.184;5.942;2023-09-30T14:31:22;3;;;1;;
15504;SDS011;7854;52.184;5.942;2023-09-30T14:33:36;5;;;1;;
15504;SDS011;7854;52.184;5.942;2023-09-30T14:35:51;2;;;2;;
15504;SDS011;7854;52.184;5.942;2023-09-30T14:38:05;4;;;2;;
15504;SDS011;7854;52.184;5.942;2023-09-30T14:40:20;7;;;2;;
15504;SDS011;7854;52.184;5.942;2023-09-30T14:42:34;3;;;2;;
15504;SDS011;7854;52.184;5.942;2023-09-30T14:44:49;2;;;1;;
15504;SDS011;7854;52.184;5.942;2023-09-30T14:47:03;6;;;2;;
15504;SDS011;7854;52.184;5.942;2023-09-30T14:49:17;3;;;2;;
15504;SDS011;7854;52.184;5.942;2023-09-30T14:51:32;6;;;2;;
15504;SDS011;7854;52.184;5.942;2023-09-30T14:53:46;3;;;3;;
15504;SDS011;7854;52.184;5.942;2023-09-30T14:56:02;4;;;2;;
15504;SDS011;7854;52.184;5.942;2023-09-30T14:58:15;2;;;1;;
15504;SDS011;7854;52.184;5.942;2023-09-30T15:00:30;2;;;2;;
15504;SDS011;7854;52.184;5.942;2023-09-30T15:02:44;3;;;2;;
15504;SDS011;7854;52.184;5.942;2023-09-30T15:04:58;3;;;2;;
15504;SDS011;7854;52.184;5.942;2023-09-30T15:07:13;5;;;3;;
15504;SDS011;7854;52.184;5.942;2023-09-30T15:09:27;5;;;2;;